createdAt,value
2017-06-16T00:01:47.747Z,18.60
2017-06-16T00:04:15.454Z,18.60
2017-06-16T00:06:43.923Z,18.50
2017-06-16T00:09:11.497Z,18.50
2017-06-16T00:11:39.002Z,18.50
2017-06-16T00:14:06.503Z,18.50
2017-06-16T00:16:34.166Z,18.40
2017-06-16T00:19:01.662Z,18.40
2017-06-16T00:21:29.159Z,18.30
2017-06-16T00:23:57.662Z,18.20
2017-06-16T00:26:25.154Z,18.20
2017-06-16T00:28:52.658Z,18.10
2017-06-16T00:31:20.973Z,18.00
2017-06-16T00:33:48.471Z,18.00
2017-06-16T00:36:15.970Z,17.90
2017-06-16T00:38:43.643Z,17.80
2017-06-16T00:41:11.136Z,17.80
2017-06-16T00:43:38.622Z,17.70
2017-06-16T00:46:06.318Z,17.70
2017-06-16T00:48:33.839Z,17.70
2017-06-16T00:51:01.339Z,17.60
2017-06-16T00:53:28.898Z,17.60
2017-06-16T00:55:56.458Z,17.60
2017-06-16T00:58:24.018Z,17.50
2017-06-16T01:00:51.597Z,17.40
2017-06-16T01:03:19.095Z,17.40
2017-06-16T01:05:46.622Z,17.30
2017-06-16T01:08:14.146Z,17.40
2017-06-16T01:10:41.646Z,17.30
2017-06-16T01:13:09.475Z,17.20
2017-06-16T01:15:36.974Z,17.30
2017-06-16T01:18:04.503Z,17.20
2017-06-16T01:20:32.154Z,17.20
2017-06-16T01:22:59.651Z,17.20
2017-06-16T01:25:27.178Z,17.20
2017-06-16T01:27:54.707Z,17.10
2017-06-16T01:30:23.012Z,17.20
2017-06-16T01:32:50.542Z,17.10
2017-06-16T01:35:18.806Z,17.20
2017-06-16T01:37:46.415Z,17.20
2017-06-16T01:40:13.970Z,17.20
2017-06-16T01:42:41.530Z,17.20
2017-06-16T01:45:09.034Z,17.20
2017-06-16T01:47:36.546Z,17.20
2017-06-16T01:50:04.332Z,17.20
2017-06-16T01:52:31.974Z,17.20
2017-06-16T01:54:59.540Z,17.20
2017-06-16T01:57:27.310Z,17.10
2017-06-16T01:59:54.810Z,17.10
2017-06-16T02:02:22.305Z,17.10
2017-06-16T02:04:51.738Z,17.10
2017-06-16T02:07:19.283Z,17.10
2017-06-16T02:09:46.842Z,17.10
2017-06-16T02:12:14.370Z,17.10
2017-06-16T02:14:42.684Z,17.00
2017-06-16T02:17:10.343Z,17.00
2017-06-16T02:19:37.902Z,16.90
2017-06-16T02:22:05.402Z,16.90
2017-06-16T02:24:33.106Z,16.90
2017-06-16T02:27:01.402Z,16.80
2017-06-16T02:29:28.902Z,16.80
2017-06-16T02:31:56.622Z,16.80
2017-06-16T02:34:24.127Z,16.80
2017-06-16T02:36:51.642Z,16.80
2017-06-16T02:39:19.279Z,16.80
2017-06-16T02:41:47.547Z,16.70
2017-06-16T02:44:15.891Z,16.70
2017-06-16T02:46:43.618Z,16.70
2017-06-16T02:49:11.187Z,16.70
2017-06-16T02:51:38.746Z,16.70
2017-06-16T02:54:06.378Z,16.60
2017-06-16T02:56:34.782Z,16.60
2017-06-16T02:59:02.298Z,16.50
2017-06-16T03:01:30.006Z,16.50
2017-06-16T03:03:57.506Z,16.50
2017-06-16T03:06:25.010Z,16.40
2017-06-16T03:09:04.463Z,16.40
2017-06-16T03:11:32.123Z,16.40
2017-06-16T03:13:59.622Z,16.30
2017-06-16T03:16:27.346Z,16.30
2017-06-16T03:18:54.905Z,16.30
2017-06-16T03:21:28.106Z,16.20
2017-06-16T03:23:55.611Z,16.10
2017-06-16T03:26:23.123Z,16.20
2017-06-16T03:28:50.679Z,16.20
2017-06-16T03:31:18.178Z,16.20
2017-06-16T03:33:45.678Z,16.20
2017-06-16T03:36:14.075Z,16.20
2017-06-16T03:38:41.570Z,16.10
2017-06-16T03:41:09.195Z,16.10
2017-06-16T03:43:36.754Z,16.20
2017-06-16T03:46:04.310Z,16.10
2017-06-16T03:48:31.974Z,16.20
2017-06-16T03:50:59.539Z,16.10
2017-06-16T03:53:27.095Z,16.10
2017-06-16T03:55:54.622Z,16.20
2017-06-16T03:58:22.150Z,16.20
2017-06-16T04:00:49.651Z,16.20
2017-06-16T04:03:18.049Z,16.10
2017-06-16T04:05:45.551Z,16.10
2017-06-16T04:08:13.051Z,16.20
2017-06-16T04:10:41.550Z,16.20
2017-06-16T04:13:09.059Z,16.20
2017-06-16T04:15:36.571Z,16.20
2017-06-16T04:18:04.143Z,16.30
2017-06-16T04:20:31.674Z,16.30
2017-06-16T04:22:59.942Z,16.30
2017-06-16T04:25:28.350Z,16.30
2017-06-16T04:27:56.006Z,16.30
2017-06-16T04:30:23.679Z,16.30
2017-06-16T04:32:51.187Z,16.30
2017-06-16T04:35:18.698Z,16.30
2017-06-16T04:37:46.244Z,16.30
2017-06-16T04:40:13.742Z,16.30
2017-06-16T04:42:41.242Z,16.30
2017-06-16T04:45:09.642Z,16.20
2017-06-16T04:47:37.144Z,16.30
2017-06-16T04:50:04.646Z,16.30
2017-06-16T04:52:32.954Z,16.20
2017-06-16T04:55:00.459Z,16.20
2017-06-16T04:57:28.059Z,16.20
2017-06-16T04:59:55.586Z,16.20
2017-06-16T05:02:23.866Z,16.20
2017-06-16T05:04:52.130Z,16.20
2017-06-16T05:07:19.662Z,16.20
2017-06-16T05:09:47.162Z,16.20
2017-06-16T05:12:15.470Z,16.30
2017-06-16T05:14:43.128Z,16.20
2017-06-16T05:17:10.630Z,16.30
2017-06-16T05:19:38.130Z,16.30
2017-06-16T05:22:06.447Z,16.40
2017-06-16T05:24:33.954Z,16.40
2017-06-16T05:27:02.230Z,16.50
2017-06-16T05:29:30.608Z,16.50
2017-06-16T05:31:58.882Z,16.60
2017-06-16T05:34:27.194Z,16.70
2017-06-16T05:36:54.752Z,16.70
2017-06-16T05:39:22.319Z,16.90
2017-06-16T05:41:49.824Z,17.00
2017-06-16T05:44:17.382Z,17.20
2017-06-16T05:46:44.898Z,17.20
2017-06-16T05:49:12.398Z,17.30
2017-06-16T05:51:40.027Z,17.40
2017-06-16T05:54:07.526Z,17.40
2017-06-16T05:56:35.078Z,17.60
2017-06-16T05:59:02.595Z,17.70
2017-06-16T06:01:30.098Z,17.70
2017-06-16T06:03:57.627Z,17.80
2017-06-16T06:06:25.370Z,17.90
2017-06-16T06:08:52.930Z,18.00
2017-06-16T06:11:20.442Z,18.00
2017-06-16T06:13:48.050Z,18.10
2017-06-16T06:16:15.615Z,18.10
2017-06-16T06:18:43.115Z,18.20
2017-06-16T06:21:10.735Z,18.20
2017-06-16T06:23:38.234Z,18.20
2017-06-16T06:26:05.783Z,18.20
2017-06-16T06:28:33.306Z,18.10
2017-06-16T06:31:00.867Z,18.20
2017-06-16T06:33:28.414Z,18.30
2017-06-16T06:35:56.714Z,18.40
2017-06-16T06:38:24.266Z,18.40
2017-06-16T06:40:51.827Z,18.40
2017-06-16T06:43:19.386Z,18.40
2017-06-16T06:45:46.886Z,18.40
2017-06-16T06:48:14.606Z,18.50
2017-06-16T06:50:42.166Z,18.50
2017-06-16T06:53:09.671Z,18.50
2017-06-16T06:55:37.286Z,18.50
2017-06-16T06:58:04.782Z,18.60
2017-06-16T07:00:32.302Z,18.70
2017-06-16T07:03:00.086Z,18.70
2017-06-16T07:05:27.769Z,18.70
2017-06-16T07:07:55.636Z,18.70
2017-06-16T07:10:24.308Z,18.70
2017-06-16T07:12:52.843Z,18.50
2017-06-16T07:15:21.366Z,18.50
2017-06-16T07:17:49.951Z,18.30
2017-06-16T07:20:17.819Z,18.20
2017-06-16T07:22:46.474Z,18.10
2017-06-16T07:25:14.850Z,18.10
2017-06-16T07:27:43.151Z,18.00
2017-06-16T07:30:10.866Z,18.00
2017-06-16T07:32:38.833Z,17.90
2017-06-16T07:35:07.929Z,18.00
2017-06-16T07:37:35.474Z,18.00
2017-06-16T07:40:03.034Z,18.00
2017-06-16T07:42:30.594Z,17.90
2017-06-16T07:44:58.258Z,18.00
2017-06-16T07:47:25.754Z,18.20
2017-06-16T07:49:53.274Z,18.30
2017-06-16T07:52:20.799Z,18.40
2017-06-16T07:54:49.206Z,18.60
2017-06-16T07:57:16.790Z,18.60
2017-06-16T07:59:44.330Z,18.70
2017-06-16T08:02:11.994Z,18.80
2017-06-16T08:04:39.550Z,19.10
2017-06-16T08:07:07.115Z,19.10
2017-06-16T08:09:34.875Z,19.00
2017-06-16T08:12:02.438Z,18.90
2017-06-16T08:14:30.098Z,19.10
2017-06-16T08:16:57.646Z,19.30
2017-06-16T08:19:25.910Z,19.60
2017-06-16T08:22:07.031Z,19.60
2017-06-16T08:24:34.562Z,19.60
2017-06-16T08:27:02.823Z,19.30
2017-06-16T08:29:31.131Z,19.20
2017-06-16T08:31:58.690Z,19.20
2017-06-16T08:34:26.231Z,19.20
2017-06-16T08:36:53.806Z,19.10
2017-06-16T08:39:21.375Z,19.00
2017-06-16T08:41:49.963Z,19.00
2017-06-16T08:44:17.470Z,19.10
2017-06-16T08:46:44.971Z,19.10
2017-06-16T08:49:13.270Z,19.20
2017-06-16T08:51:40.768Z,19.40
2017-06-16T08:54:09.039Z,19.70
2017-06-16T08:56:36.860Z,19.70
2017-06-16T08:59:04.366Z,19.80
2017-06-16T09:01:32.020Z,19.90
2017-06-16T09:03:59.718Z,19.80
2017-06-16T09:06:27.219Z,19.80
2017-06-16T09:08:55.006Z,19.90
2017-06-16T09:11:22.515Z,20.00
2017-06-16T09:13:50.014Z,20.00
2017-06-16T09:16:17.555Z,19.90
2017-06-16T09:18:45.090Z,19.80
2017-06-16T09:21:12.583Z,19.80
2017-06-16T09:23:40.123Z,19.90
2017-06-16T09:26:07.672Z,20.10
2017-06-16T09:28:35.226Z,20.20
2017-06-16T09:31:02.791Z,20.30
2017-06-16T09:33:30.450Z,20.30
2017-06-16T09:35:58.010Z,20.30
2017-06-16T09:38:25.681Z,20.00
2017-06-16T09:40:53.235Z,19.90
2017-06-16T09:43:20.894Z,19.80
2017-06-16T09:45:48.560Z,19.80
2017-06-16T09:48:16.441Z,19.70
2017-06-16T09:50:44.088Z,19.90
2017-06-16T09:53:11.581Z,19.90
2017-06-16T09:55:39.082Z,19.90
2017-06-16T09:58:07.371Z,20.20
2017-06-16T10:00:34.926Z,20.20
2017-06-16T10:03:02.479Z,20.20
2017-06-16T10:05:30.020Z,20.20
2017-06-16T10:07:58.280Z,20.20
2017-06-16T10:10:25.782Z,20.10
2017-06-16T10:12:53.450Z,20.10
2017-06-16T10:15:20.963Z,20.00
2017-06-16T10:17:49.239Z,20.20
2017-06-16T10:20:16.764Z,20.20
2017-06-16T10:22:44.264Z,20.20
2017-06-16T10:25:11.814Z,20.20
2017-06-16T10:27:39.410Z,20.40
2017-06-16T10:30:06.907Z,20.50
2017-06-16T10:32:34.435Z,20.50
2017-06-16T10:35:01.986Z,20.50
2017-06-16T10:37:29.687Z,20.50
2017-06-16T10:39:57.323Z,20.60
2017-06-16T10:42:24.830Z,20.40
2017-06-16T10:44:52.354Z,20.30
2017-06-16T10:47:19.989Z,20.10
2017-06-16T10:49:47.486Z,20.00
2017-06-16T10:52:15.114Z,20.00
2017-06-16T10:54:42.674Z,20.20
2017-06-16T10:57:10.348Z,20.30
2017-06-16T10:59:37.999Z,20.40
2017-06-16T11:02:05.559Z,20.50
2017-06-16T11:04:33.114Z,20.60
2017-06-16T11:07:00.622Z,20.60
2017-06-16T11:09:28.159Z,20.40
2017-06-16T11:11:55.652Z,20.30
2017-06-16T11:14:23.254Z,20.00
2017-06-16T11:16:50.780Z,19.70
2017-06-16T11:19:18.274Z,19.60
2017-06-16T11:21:45.974Z,19.70
2017-06-16T11:24:13.462Z,19.80
2017-06-16T11:26:40.956Z,19.90
2017-06-16T11:29:08.660Z,20.10
2017-06-16T11:31:36.158Z,20.30
2017-06-16T11:34:03.655Z,20.60
2017-06-16T11:36:32.057Z,21.00
2017-06-16T11:38:59.619Z,21.00
2017-06-16T11:41:27.126Z,20.90
2017-06-16T11:43:54.647Z,21.00
2017-06-16T11:46:22.141Z,21.10
2017-06-16T11:48:49.879Z,20.90
2017-06-16T11:51:17.694Z,21.00
2017-06-16T11:53:45.187Z,20.80
2017-06-16T11:56:13.597Z,20.70
2017-06-16T11:58:41.138Z,20.70
2017-06-16T12:01:08.639Z,20.70
2017-06-16T12:03:36.183Z,20.90
2017-06-16T12:06:03.718Z,21.30
2017-06-16T12:08:31.221Z,21.40
2017-06-16T12:10:59.051Z,21.50
2017-06-16T12:13:26.548Z,21.60
2017-06-16T12:15:54.039Z,21.40
2017-06-16T12:18:22.450Z,21.30
2017-06-16T12:20:50.019Z,21.30
2017-06-16T12:23:17.514Z,21.40
2017-06-16T12:25:45.054Z,21.40
2017-06-16T12:28:12.547Z,21.30
2017-06-16T12:30:40.146Z,21.40
2017-06-16T12:33:07.706Z,21.60
2017-06-16T12:35:35.266Z,21.60
2017-06-16T12:38:02.762Z,21.40
2017-06-16T12:40:30.390Z,21.60
2017-06-16T12:42:57.951Z,21.50
2017-06-16T12:45:25.446Z,21.30
2017-06-16T12:47:52.967Z,21.10
2017-06-16T12:50:20.629Z,20.90
2017-06-16T12:52:48.190Z,20.90
2017-06-16T12:55:15.746Z,20.90
2017-06-16T12:57:43.311Z,20.80
2017-06-16T13:00:10.835Z,20.70
2017-06-16T13:02:38.433Z,20.70
2017-06-16T13:05:05.990Z,20.60
2017-06-16T13:07:33.547Z,20.50
2017-06-16T13:10:01.045Z,20.60
2017-06-16T13:12:28.591Z,20.50
2017-06-16T13:14:56.130Z,20.60
2017-06-16T13:17:23.623Z,20.70
2017-06-16T13:19:51.151Z,20.80
2017-06-16T13:22:18.703Z,21.00
2017-06-16T13:24:46.362Z,21.10
2017-06-16T13:27:13.862Z,21.40
2017-06-16T13:29:41.750Z,21.40
2017-06-16T13:32:09.353Z,21.40
2017-06-16T13:34:36.859Z,21.30
2017-06-16T13:37:04.370Z,21.10
2017-06-16T13:39:31.909Z,20.80
2017-06-16T13:42:00.209Z,20.40
2017-06-16T13:44:27.766Z,20.40
2017-06-16T13:46:55.326Z,20.30
2017-06-16T13:49:22.834Z,20.20
2017-06-16T13:51:50.447Z,20.20
2017-06-16T13:54:17.942Z,20.10
2017-06-16T13:56:45.463Z,20.10
2017-06-16T13:59:13.126Z,20.10
2017-06-16T14:01:41.386Z,20.20
2017-06-16T14:04:08.894Z,20.10
2017-06-16T14:06:36.414Z,20.10
2017-06-16T14:09:03.970Z,20.00
2017-06-16T14:11:31.466Z,20.00
2017-06-16T14:13:59.042Z,20.00
2017-06-16T14:16:26.691Z,20.10
2017-06-16T14:18:54.188Z,20.20
2017-06-16T14:21:21.797Z,20.20
2017-06-16T14:23:50.299Z,20.30
2017-06-16T14:26:17.799Z,20.30
2017-06-16T14:28:45.310Z,20.40
2017-06-16T14:31:12.875Z,20.40
2017-06-16T14:33:40.398Z,20.50
2017-06-16T14:36:07.895Z,20.40
2017-06-16T14:38:35.438Z,20.50
2017-06-16T14:41:02.935Z,20.50
2017-06-16T14:43:30.584Z,20.40
2017-06-16T14:45:58.230Z,20.20
2017-06-16T14:48:25.731Z,20.00
2017-06-16T14:50:53.248Z,20.00
2017-06-16T14:53:20.790Z,20.00
2017-06-16T14:55:49.086Z,20.00
2017-06-16T14:58:16.663Z,20.00
2017-06-16T15:00:44.194Z,19.90
2017-06-16T15:03:12.586Z,20.00
2017-06-16T15:05:40.078Z,20.00
2017-06-16T15:08:07.703Z,20.00
2017-06-16T15:10:35.366Z,20.00
2017-06-16T15:13:02.867Z,19.90
2017-06-16T15:15:30.582Z,19.80
2017-06-16T15:17:58.147Z,19.80
2017-06-16T15:20:25.711Z,19.70
2017-06-16T15:22:53.286Z,19.70
2017-06-16T15:25:20.890Z,19.70
2017-06-16T15:27:48.494Z,19.70
2017-06-16T15:30:16.260Z,19.70
2017-06-16T15:32:43.820Z,19.60
2017-06-16T15:35:11.374Z,19.50
2017-06-16T15:37:38.934Z,19.50
2017-06-16T15:40:06.498Z,19.50
2017-06-16T15:42:34.071Z,19.60
2017-06-16T15:45:01.715Z,19.60
2017-06-16T15:47:29.279Z,19.80
2017-06-16T15:49:56.842Z,20.00
2017-06-16T15:52:24.394Z,20.00
2017-06-16T15:54:51.963Z,20.00
2017-06-16T15:57:19.463Z,19.90
2017-06-16T15:59:47.086Z,19.80
2017-06-16T16:02:14.583Z,19.80
2017-06-16T16:04:42.108Z,19.80
2017-06-16T16:07:09.654Z,19.80
2017-06-16T16:09:37.214Z,19.70
2017-06-16T16:12:04.758Z,19.60
2017-06-16T16:14:33.049Z,19.60
2017-06-16T16:17:00.554Z,19.60
2017-06-16T16:19:28.166Z,19.60
2017-06-16T16:21:55.662Z,19.70
2017-06-16T16:24:23.194Z,19.80
2017-06-16T16:26:50.738Z,20.00
2017-06-16T16:29:18.305Z,19.80
2017-06-16T16:31:45.866Z,19.70
2017-06-16T16:34:13.406Z,19.60
2017-06-16T16:36:41.702Z,19.40
2017-06-16T16:39:09.265Z,19.30
2017-06-16T16:41:36.829Z,19.20
2017-06-16T16:44:04.330Z,19.00
2017-06-16T16:46:31.943Z,19.00
2017-06-16T16:48:59.442Z,18.90
2017-06-16T16:51:26.987Z,18.80
2017-06-16T16:53:54.486Z,18.70
2017-06-16T16:56:22.079Z,18.80
2017-06-16T16:58:49.643Z,18.80
2017-06-16T17:01:17.140Z,18.70
2017-06-16T17:03:44.668Z,18.80
2017-06-16T17:06:12.195Z,18.80
2017-06-16T17:08:40.459Z,19.10
2017-06-16T17:11:08.419Z,19.10
2017-06-16T17:13:35.927Z,19.10
2017-06-16T17:16:03.435Z,19.10
2017-06-16T17:18:31.247Z,19.00
2017-06-16T17:20:58.925Z,19.00
2017-06-16T17:23:26.500Z,18.80
2017-06-16T17:25:54.146Z,18.80
2017-06-16T17:28:21.811Z,18.70
2017-06-16T17:30:49.479Z,18.70
2017-06-16T17:33:17.134Z,18.90
2017-06-16T17:35:44.803Z,19.10
2017-06-16T17:38:12.472Z,19.60
2017-06-16T17:40:40.430Z,19.80
2017-06-16T17:43:08.114Z,19.90
2017-06-16T17:45:35.754Z,19.50
2017-06-16T17:48:03.398Z,19.20
2017-06-16T17:50:30.958Z,18.80
2017-06-16T17:52:58.522Z,18.60
2017-06-16T17:55:26.078Z,18.50
2017-06-16T17:57:53.642Z,18.30
2017-06-16T18:00:21.176Z,18.30
2017-06-16T18:02:49.478Z,18.20
2017-06-16T18:05:17.157Z,18.20
2017-06-16T18:07:44.658Z,18.20
2017-06-16T18:10:12.158Z,18.20
2017-06-16T18:12:39.703Z,18.20
2017-06-16T18:15:07.279Z,18.50
2017-06-16T18:17:34.775Z,18.70
2017-06-16T18:20:02.395Z,18.90
2017-06-16T18:22:29.958Z,19.00
2017-06-16T18:24:57.519Z,19.00
2017-06-16T18:27:25.034Z,19.00
2017-06-16T18:29:52.630Z,18.90
2017-06-16T18:32:20.124Z,18.80
2017-06-16T18:34:47.619Z,18.80
2017-06-16T18:37:15.202Z,18.80
2017-06-16T18:39:42.770Z,19.00
2017-06-16T18:42:10.330Z,19.10
2017-06-16T18:44:37.899Z,18.90
2017-06-16T18:47:05.434Z,18.70
2017-06-16T18:49:33.830Z,18.70
2017-06-16T18:52:01.390Z,18.80
2017-06-16T18:54:29.051Z,18.90
2017-06-16T18:56:56.723Z,18.90
2017-06-16T18:59:24.224Z,18.80
2017-06-16T19:01:51.726Z,18.70
2017-06-16T19:04:19.313Z,18.70
2017-06-16T19:06:46.803Z,18.50
2017-06-16T19:09:14.310Z,18.40
2017-06-16T19:11:41.939Z,18.20
2017-06-16T19:14:09.460Z,18.10
2017-06-16T19:16:36.970Z,17.90
2017-06-16T19:19:04.566Z,17.80
2017-06-16T19:21:32.187Z,17.70
2017-06-16T19:23:59.772Z,17.60
2017-06-16T19:26:28.925Z,17.40
2017-06-16T19:28:56.446Z,17.40
2017-06-16T19:31:23.994Z,17.30
2017-06-16T19:33:51.567Z,17.20
2017-06-16T19:36:19.083Z,17.10
2017-06-16T19:38:46.614Z,17.00
2017-06-16T19:41:14.146Z,16.90
2017-06-16T19:43:41.658Z,16.80
2017-06-16T19:46:09.218Z,16.80
2017-06-16T19:48:36.839Z,16.70
2017-06-16T19:51:04.341Z,16.70
2017-06-16T19:53:31.979Z,16.60
2017-06-16T19:55:59.492Z,16.60
2017-06-16T19:58:27.022Z,16.60
2017-06-16T20:00:54.555Z,16.50
2017-06-16T20:03:22.068Z,16.50
2017-06-16T20:05:51.771Z,16.40
2017-06-16T20:08:19.426Z,16.40
2017-06-16T20:10:47.843Z,16.40
2017-06-16T20:13:15.573Z,16.40
2017-06-16T20:15:43.242Z,16.30
2017-06-16T20:18:11.450Z,16.30
2017-06-16T20:20:39.139Z,16.20
2017-06-16T20:23:06.730Z,16.10
2017-06-16T20:25:34.314Z,16.00
2017-06-16T20:28:01.810Z,15.90
2017-06-16T20:30:29.357Z,15.80
2017-06-16T20:32:56.858Z,15.80
2017-06-16T20:35:24.359Z,15.70
2017-06-16T20:37:52.118Z,15.70
2017-06-16T20:40:19.678Z,15.70
2017-06-16T20:42:47.176Z,15.60
2017-06-16T20:45:14.722Z,15.50
2017-06-16T20:47:42.222Z,15.50
2017-06-16T20:50:10.491Z,15.40
2017-06-16T20:52:38.123Z,15.40
2017-06-16T20:55:05.655Z,15.30
2017-06-16T20:57:33.160Z,15.30
2017-06-16T21:00:00.687Z,15.20
2017-06-16T21:02:28.183Z,15.20
2017-06-16T21:04:57.587Z,15.20
2017-06-16T21:07:25.294Z,15.20
2017-06-16T21:09:52.786Z,15.20
2017-06-16T21:12:20.278Z,15.10
2017-06-16T21:14:47.798Z,15.00
2017-06-16T21:17:15.318Z,15.00
2017-06-16T21:19:42.819Z,15.00
2017-06-16T21:22:15.906Z,14.90
2017-06-16T21:24:43.458Z,14.90
2017-06-16T21:27:10.956Z,14.90
2017-06-16T21:29:38.451Z,14.90
2017-06-16T21:32:06.003Z,14.80
2017-06-16T21:34:33.497Z,14.80
2017-06-16T21:37:00.994Z,14.80
2017-06-16T21:39:28.618Z,14.70
2017-06-16T21:41:56.118Z,14.60
2017-06-16T21:44:23.614Z,14.70
2017-06-16T21:46:51.134Z,14.60
2017-06-16T21:49:19.402Z,14.50
2017-06-16T21:51:46.931Z,14.50
2017-06-16T21:54:14.456Z,14.50
2017-06-16T21:56:41.950Z,14.50
2017-06-16T21:59:09.582Z,14.50
2017-06-16T22:01:37.139Z,14.50
2017-06-16T22:04:04.702Z,14.50
2017-06-16T22:06:32.258Z,14.40
2017-06-16T22:08:59.918Z,14.40
2017-06-16T22:11:27.482Z,14.30
2017-06-16T22:13:55.043Z,14.30
2017-06-16T22:16:22.702Z,14.30
2017-06-16T22:18:50.262Z,14.20
2017-06-16T22:21:17.754Z,14.20
2017-06-16T22:23:45.382Z,14.20
2017-06-16T22:26:12.895Z,14.20
2017-06-16T22:28:40.394Z,14.10
2017-06-16T22:31:07.967Z,14.10
2017-06-16T22:33:35.462Z,14.10
2017-06-16T22:36:02.994Z,14.00
2017-06-16T22:38:30.538Z,14.00
2017-06-16T22:40:58.201Z,14.00
2017-06-16T22:43:25.962Z,14.00
2017-06-16T22:45:54.349Z,14.00
2017-06-16T22:48:21.843Z,13.90
2017-06-16T22:50:49.463Z,13.90
2017-06-16T22:53:17.022Z,13.90
2017-06-16T22:55:44.518Z,13.90
2017-06-16T22:58:12.235Z,13.80
2017-06-16T23:00:39.743Z,13.80
2017-06-16T23:03:07.302Z,13.80
2017-06-16T23:05:34.863Z,13.70
2017-06-16T23:08:02.420Z,13.70
2017-06-16T23:10:29.942Z,13.70
2017-06-16T23:12:57.638Z,13.70
2017-06-16T23:15:25.139Z,13.60
2017-06-16T23:17:52.631Z,13.60
2017-06-16T23:20:20.922Z,13.60
2017-06-16T23:22:48.422Z,13.60
2017-06-16T23:25:15.955Z,13.60
2017-06-16T23:27:43.514Z,13.60
2017-06-16T23:30:11.192Z,13.60
2017-06-16T23:32:38.739Z,13.50
2017-06-16T23:35:06.703Z,13.50
2017-06-16T23:37:34.266Z,13.50
2017-06-16T23:40:01.758Z,13.50
2017-06-16T23:42:29.486Z,13.50
2017-06-16T23:44:57.150Z,13.40
2017-06-16T23:47:24.710Z,13.40
2017-06-16T23:49:52.371Z,13.50
2017-06-16T23:52:19.863Z,13.40
2017-06-16T23:54:47.355Z,13.40
2017-06-16T23:57:14.878Z,13.40
2017-06-16T23:59:42.399Z,13.40
